Time;durP1;ratioP1;P1;durP2;ratioP2;P2;SDS_P1;SDS_P2;PMS_P1;PMS_P2;Temp;Humidity;BMP_temperature;BMP_pressure;BME280_temperature;BME280_humidity;BME280_pressure;Samples;Min_cycle;Max_cycle;Signal;HPM_P1;HPM_P2
2022/08/22 00:00:13;;;;;;;7.82;2.75;;;17.70;99.90;;;;;;5052926;28;20404;-52
2022/08/22 00:03:01;;;;;;;4.53;2.65;;;17.80;99.90;;;;;;5069735;28;20513;-52
2022/08/22 00:05:36;;;;;;;5.72;2.53;;;17.70;99.90;;;;;;5069551;28;20043;-52
2022/08/22 00:08:40;;;;;;;9.95;2.80;;;17.70;99.90;;;;;;5069024;28;20040;-49
2022/08/22 00:11:29;;;;;;;10.30;2.75;;;17.70;99.90;;;;;;5068815;28;20048;-49
2022/08/22 00:14:19;;;;;;;3.97;2.58;;;17.60;99.90;;;;;;5069530;28;20083;-52
2022/08/22 00:16:59;;;;;;;7.20;2.95;;;17.60;99.90;;;;;;5069177;28;20442;-48
2022/08/22 00:19:40;;;;;;;4.10;2.30;;;17.60;99.90;;;;;;5070021;28;20058;-51
2022/08/22 00:22:29;;;;;;;3.83;2.42;;;17.50;99.90;;;;;;5069785;28;20112;-52
2022/08/22 00:25:13;;;;;;;4.18;2.13;;;17.50;99.90;;;;;;5069416;28;20071;-50
2022/08/22 00:28:04;;;;;;;4.47;1.80;;;17.50;99.90;;;;;;5049606;28;20056;-52
2022/08/22 00:30:40;;;;;;;4.90;1.40;;;17.40;99.90;;;;;;5053582;28;20037;-52
2022/08/22 00:33:27;;;;;;;5.30;1.85;;;17.40;99.90;;;;;;5068909;28;20454;-48
2022/08/22 00:36:01;;;;;;;;;;;17.40;99.90;;;;;;5069942;28;20102;-50
2022/08/22 00:38:32;;;;;;;3.60;2.08;;;17.30;99.90;;;;;;5069443;28;19916;-52
2022/08/22 00:41:05;;;;;;;2.75;2.30;;;17.30;99.90;;;;;;5069331;28;20135;-50
2022/08/22 00:44:08;;;;;;;6.40;2.13;;;17.30;99.90;;;;;;5068720;28;20040;-49
2022/08/22 00:47:07;;;;;;;3.50;1.70;;;17.20;99.90;;;;;;5071151;28;20060;-50
2022/08/22 00:49:52;;;;;;;7.57;2.47;;;17.20;99.90;;;;;;5088400;28;20048;-52
2022/08/22 00:52:23;;;;;;;7.97;2.90;;;17.10;99.90;;;;;;5073246;28;20116;-52
2022/08/22 00:54:59;;;;;;;8.02;1.73;;;17.10;99.90;;;;;;5072929;28;20040;-52
2022/08/22 00:57:43;;;;;;;;;;;17.10;99.90;;;;;;5073283;28;20047;-46
2022/08/22 01:00:23;;;;;;;4.65;1.73;;;17.20;99.90;;;;;;5072477;28;20397;-48
2022/08/22 01:03:08;;;;;;;6.25;1.85;;;17.10;99.90;;;;;;5072562;28;20067;-52
2022/08/22 01:05:52;;;;;;;5.75;3.03;;;17.10;99.90;;;;;;5072788;28;20717;-50
2022/08/22 01:08:27;;;;;;;3.78;2.38;;;17.10;99.90;;;;;;5052462;28;20045;-52
2022/08/22 01:11:56;;;;;;;7.00;3.67;;;17.20;99.90;;;;;;5053139;28;20037;-47
2022/08/22 01:14:33;;;;;;;;;;;17.20;99.90;;;;;;5010592;28;20128;-47
2022/08/22 01:17:13;;;;;;;10.57;4.45;;;17.30;99.90;;;;;;5063540;28;19973;-51
2022/08/22 01:20:30;;;;;;;13.38;4.05;;;17.30;99.90;;;;;;5072461;28;20128;-46
2022/08/22 01:22:58;;;;;;;8.68;3.30;;;17.30;99.90;;;;;;5037407;28;20053;-52
2022/08/22 01:25:49;;;;;;;6.95;3.20;;;17.30;99.90;;;;;;5072550;28;20048;-52
2022/08/22 01:28:36;;;;;;;7.43;3.03;;;17.30;99.90;;;;;;5071917;28;20044;-52
2022/08/22 01:31:33;;;;;;;9.93;3.90;;;17.40;99.90;;;;;;5072296;28;20047;-49
2022/08/22 01:34:22;;;;;;;9.93;4.75;;;17.30;99.90;;;;;;5052144;28;20037;-50
2022/08/22 01:37:23;;;;;;;7.22;3.90;;;17.30;99.90;;;;;;5056812;28;20470;-51
2022/08/22 01:39:59;;;;;;;8.70;3.30;;;17.30;99.90;;;;;;5071722;28;20044;-50
2022/08/22 01:42:34;;;;;;;8.48;2.88;;;17.30;99.90;;;;;;5070982;28;20051;-47
2022/08/22 01:45:06;;;;;;;7.15;2.83;;;17.40;99.90;;;;;;5072160;28;20048;-51
2022/08/22 01:47:54;;;;;;;8.75;2.60;;;17.40;99.90;;;;;;5071151;28;20039;-48
2022/08/22 01:50:23;;;;;;;4.30;2.22;;;17.40;99.90;;;;;;5070839;28;20122;-49
2022/08/22 01:53:00;;;;;;;5.05;2.20;;;17.30;99.90;;;;;;5071094;28;20036;-49
2022/08/22 01:55:42;;;;;;;5.35;2.10;;;17.20;99.90;;;;;;5051908;28;20052;-47
2022/08/22 01:58:20;;;;;;;3.50;1.80;;;17.20;99.90;;;;;;5064005;28;20040;-46
2022/08/22 02:00:57;;;;;;;3.03;1.25;;;17.10;99.90;;;;;;5071557;28;20292;-48
2022/08/22 02:03:42;;;;;;;2.95;1.27;;;17.00;99.90;;;;;;5070762;28;20436;-47
2022/08/22 02:06:13;;;;;;;3.90;1.38;;;17.00;99.90;;;;;;5051676;28;20041;-51
2022/08/22 02:09:00;;;;;;;3.10;1.55;;;16.90;99.90;;;;;;5067593;28;20241;-52
2022/08/22 02:11:34;;;;;;;2.15;1.48;;;16.90;99.90;;;;;;5071901;28;20448;-47
2022/08/22 02:14:17;;;;;;;4.43;1.50;;;16.80;99.90;;;;;;5070560;28;20511;-48
2022/08/22 02:16:48;;;;;;;3.17;1.35;;;16.80;99.90;;;;;;5051330;28;20033;-51
2022/08/22 02:19:13;;;;;;;2.90;1.58;;;16.80;99.90;;;;;;5070388;28;20108;-47
2022/08/22 02:22:05;;;;;;;5.07;1.60;;;16.80;99.90;;;;;;5071529;28;20155;-52
2022/08/22 02:24:53;;;;;;;4.35;2.38;;;16.80;99.90;;;;;;5051052;28;20041;-46
2022/08/22 02:27:30;;;;;;;9.18;2.40;;;16.90;99.90;;;;;;5054751;28;20089;-47
2022/08/22 02:30:06;;;;;;;2.58;2.00;;;16.90;99.90;;;;;;5071486;28;20429;-47
2022/08/22 02:32:40;;;;;;;8.50;3.22;;;17.00;99.90;;;;;;5071344;28;20444;-52
2022/08/22 02:35:13;;;;;;;12.07;3.53;;;16.90;99.90;;;;;;5070883;28;20047;-51
2022/08/22 02:37:56;;;;;;;5.80;2.83;;;16.80;99.90;;;;;;5070325;28;20037;-51
2022/08/22 02:40:31;;;;;;;7.22;3.10;;;16.80;99.90;;;;;;5070937;28;20040;-52
2022/08/22 02:43:21;;;;;;;4.60;2.50;;;16.80;99.90;;;;;;5070303;28;20082;-47
2022/08/22 02:46:02;;;;;;;4.90;3.05;;;16.90;99.90;;;;;;5071097;28;20394;-46
2022/08/22 02:48:39;;;;;;;5.93;2.55;;;16.90;99.90;;;;;;5059663;28;20426;-50
2022/08/22 02:51:14;;;;;;;6.63;2.60;;;17.00;99.90;;;;;;5069654;28;20033;-46
2022/08/22 02:54:23;;;;;;;8.20;1.40;;;17.00;99.90;;;;;;5068413;28;20045;-47
2022/08/22 02:57:34;;;;;;;7.72;2.83;;;16.90;99.90;;;;;;5069489;28;20051;-47
2022/08/22 03:00:21;;;;;;;3.75;2.35;;;16.90;99.90;;;;;;5066577;28;20187;-46
2022/08/22 03:03:15;;;;;;;9.25;3.35;;;16.90;99.90;;;;;;5060376;28;20094;-47
2022/08/22 03:05:43;;;;;;;8.00;3.08;;;16.80;99.90;;;;;;5070678;28;20045;-48
2022/08/22 03:08:27;;;;;;;6.22;3.20;;;16.80;99.90;;;;;;5069347;28;20037;-52
2022/08/22 03:11:07;;;;;;;3.00;2.25;;;16.80;99.90;;;;;;5070542;28;20032;-47
2022/08/22 03:13:48;;;;;;;6.43;2.97;;;16.80;99.90;;;;;;5069325;28;20041;-47
2022/08/22 03:16:34;;;;;;;4.45;3.45;;;16.90;99.90;;;;;;5085923;28;20037;-47
2022/08/22 03:19:19;;;;;;;7.38;2.85;;;16.80;99.90;;;;;;5069615;28;20043;-52
2022/08/22 03:22:08;;;;;;;5.47;2.88;;;16.70;99.90;;;;;;5069992;28;20040;-46
2022/08/22 03:25:06;;;;;;;10.75;3.33;;;16.70;99.90;;;;;;5069913;28;20390;-49
2022/08/22 03:27:54;;;;;;;10.93;3.70;;;16.80;99.90;;;;;;5070443;28;20040;-47
2022/08/22 03:30:39;;;;;;;6.97;4.40;;;16.70;99.90;;;;;;5069875;28;20076;-47
2022/08/22 03:33:21;;;;;;;7.38;4.30;;;16.80;99.90;;;;;;5069714;28;20036;-46
2022/08/22 03:35:47;;;;;;;8.13;4.07;;;16.80;99.90;;;;;;5050083;28;20045;-46
2022/08/22 03:38:24;;;;;;;7.25;4.47;;;16.80;99.90;;;;;;5050318;28;20052;-46
2022/08/22 03:41:00;;;;;;;8.88;4.10;;;16.80;99.90;;;;;;5050462;28;20075;-47
2022/08/22 03:43:38;;;;;;;;;;;16.90;99.90;;;;;;5051958;28;20071;-45
2022/08/22 03:46:41;;;;;;;12.98;3.60;;;16.90;99.90;;;;;;5068696;28;19916;-47
2022/08/22 03:49:26;;;;;;;10.07;4.40;;;16.90;99.90;;;;;;5068017;28;20680;-48
2022/08/22 03:52:29;;;;;;;10.00;4.47;;;16.90;99.90;;;;;;5070201;28;20032;-46
2022/08/22 03:55:46;;;;;;;10.93;4.18;;;16.90;99.90;;;;;;5069286;28;20040;-47
2022/08/22 03:58:30;;;;;;;7.25;4.75;;;16.90;99.90;;;;;;5007316;28;20053;-48
2022/08/22 04:01:32;;;;;;;6.45;3.92;;;16.90;99.90;;;;;;5007649;28;20077;-47
2022/08/22 04:04:12;;;;;;;7.63;4.32;;;16.90;99.90;;;;;;5007108;28;20045;-46
2022/08/22 04:06:50;;;;;;;10.05;4.47;;;17.00;99.90;;;;;;5008078;28;20403;-46
2022/08/22 04:09:49;;;;;;;8.77;4.18;;;16.90;99.90;;;;;;5007433;28;20038;-47
2022/08/22 04:12:20;;;;;;;7.57;4.22;;;16.90;99.90;;;;;;5007882;28;20523;-46
2022/08/22 04:15:04;;;;;;;4.85;4.35;;;16.90;99.90;;;;;;5007142;28;20053;-47
2022/08/22 04:18:06;;;;;;;10.07;4.75;;;16.80;99.90;;;;;;5007674;28;20053;-47
2022/08/22 04:21:04;;;;;;;8.63;4.40;;;16.80;99.90;;;;;;5007910;28;20115;-48
2022/08/22 04:24:00;;;;;;;7.55;4.97;;;16.80;99.90;;;;;;5011000;28;20037;-47
2022/08/22 04:26:54;;;;;;;11.63;4.57;;;16.80;99.90;;;;;;4991087;28;20047;-47
2022/08/22 04:29:22;;;;;;;11.10;4.80;;;16.70;99.90;;;;;;4994036;28;20124;-47
2022/08/22 04:32:18;;;;;;;12.00;5.75;;;16.80;99.90;;;;;;5011045;28;20133;-46
2022/08/22 04:35:28;;;;;;;12.45;5.70;;;16.80;99.90;;;;;;5061793;28;20063;-46
2022/08/22 04:38:03;;;;;;;10.43;5.35;;;16.80;99.90;;;;;;5010761;28;20053;-46
2022/08/22 04:40:42;;;;;;;13.52;6.10;;;16.80;99.90;;;;;;5063616;28;20071;-46
2022/08/22 04:43:33;;;;;;;7.35;4.43;;;16.90;99.90;;;;;;5072266;28;20524;-47
2022/08/22 04:46:13;;;;;;;16.17;5.63;;;16.80;99.90;;;;;;5065644;28;20059;-47
2022/08/22 04:49:00;;;;;;;9.98;5.18;;;16.90;99.90;;;;;;5072896;28;20055;-47
2022/08/22 04:51:34;;;;;;;13.88;5.82;;;16.90;99.90;;;;;;5052682;28;20037;-46
2022/08/22 04:54:16;;;;;;;9.23;5.60;;;16.90;99.90;;;;;;5053136;28;20068;-46
2022/08/22 04:57:04;;;;;;;10.85;5.20;;;16.90;99.90;;;;;;5052973;28;20066;-46
2022/08/22 04:59:30;;;;;;;13.15;5.57;;;17.00;99.90;;;;;;5057288;28;20163;-47
2022/08/22 05:01:59;;;;;;;8.25;4.85;;;17.00;99.90;;;;;;5072208;28;20079;-47
2022/08/22 05:05:05;;;;;;;13.07;5.50;;;17.10;99.90;;;;;;5072153;28;20036;-47
2022/08/22 05:07:35;;;;;;;11.50;4.90;;;17.10;99.90;;;;;;5009952;28;20046;-48
2022/08/22 05:10:17;;;;;;;12.75;5.68;;;17.10;99.90;;;;;;5009768;28;20045;-47
2022/08/22 05:12:53;;;;;;;11.98;5.22;;;17.20;99.90;;;;;;5048404;28;20510;-48
2022/08/22 05:15:23;;;;;;;16.23;5.82;;;17.20;99.90;;;;;;5086777;28;20044;-47
2022/08/22 05:17:52;;;;;;;8.52;4.63;;;17.20;99.90;;;;;;5072316;28;20075;-46
2022/08/22 05:20:24;;;;;;;9.13;4.72;;;17.30;99.90;;;;;;5072627;28;20064;-47
2022/08/22 05:22:58;;;;;;;17.27;5.20;;;17.30;99.90;;;;;;5071756;28;20045;-48
2022/08/22 05:25:29;;;;;;;10.43;4.20;;;17.30;99.90;;;;;;5072265;28;20039;-48
2022/08/22 05:28:07;;;;;;;13.45;5.82;;;17.30;99.90;;;;;;5072834;28;20452;-47
2022/08/22 05:30:34;;;;;;;8.18;4.63;;;17.40;99.90;;;;;;5070604;28;20033;-47
2022/08/22 05:33:23;;;;;;;9.00;4.63;;;17.40;99.90;;;;;;5071059;28;20397;-46
2022/08/22 05:36:05;;;;;;;9.02;4.78;;;17.50;99.90;;;;;;5071919;28;20091;-46
2022/08/22 05:38:35;;;;;;;12.30;4.82;;;17.50;99.90;;;;;;5071957;28;20045;-47
2022/08/22 05:41:10;;;;;;;8.02;4.25;;;17.50;99.90;;;;;;5070747;28;20390;-47
2022/08/22 05:43:39;;;;;;;13.70;4.50;;;17.50;99.90;;;;;;5070580;28;20506;-47
2022/08/22 05:46:08;;;;;;;10.75;4.78;;;17.50;99.90;;;;;;5070236;28;20040;-47
2022/08/22 05:48:44;;;;;;;13.02;5.80;;;17.50;99.90;;;;;;5070199;28;20039;-46
2022/08/22 05:51:23;;;;;;;13.57;4.78;;;17.60;99.90;;;;;;5068504;28;20273;-47
2022/08/22 05:54:00;;;;;;;14.63;5.35;;;17.60;99.90;;;;;;5057546;28;20090;-47
2022/08/22 05:56:41;;;;;;;10.43;4.70;;;17.60;99.90;;;;;;5064003;28;20464;-46
2022/08/22 05:59:28;;;;;;;12.80;5.15;;;17.60;99.90;;;;;;5063738;28;20044;-47
2022/08/22 06:02:18;;;;;;;12.88;4.65;;;17.60;99.90;;;;;;5071551;28;20516;-46
2022/08/22 06:04:53;;;;;;;12.57;6.28;;;17.60;99.90;;;;;;5067661;28;20044;-47
2022/08/22 06:07:26;;;;;;;12.95;5.43;;;17.60;99.90;;;;;;5051638;28;20477;-47
2022/08/22 06:10:19;;;;;;;14.10;5.60;;;17.70;99.90;;;;;;5059942;28;20098;-47
2022/08/22 06:12:59;;;;;;;12.60;6.28;;;17.70;99.90;;;;;;5071387;28;20458;-47
2022/08/22 06:15:39;;;;;;;11.43;5.80;;;17.70;99.90;;;;;;5071642;28;20087;-47
2022/08/22 06:18:12;;;;;;;9.43;5.72;;;17.70;99.90;;;;;;5071118;28;20167;-46
2022/08/22 06:21:07;;;;;;;13.52;6.45;;;17.80;99.90;;;;;;5071384;28;20409;-46
2022/08/22 06:24:01;;;;;;;14.32;5.70;;;17.80;99.90;;;;;;5051262;28;20052;-46
2022/08/22 06:26:31;;;;;;;11.85;6.43;;;17.80;99.90;;;;;;5070056;28;20047;-47
2022/08/22 06:28:59;;;;;;;12.35;6.05;;;17.90;99.90;;;;;;5070587;28;20090;-48
2022/08/22 06:31:40;;;;;;;11.25;5.50;;;17.90;99.90;;;;;;5070501;28;20160;-48
2022/08/22 06:34:13;;;;;;;13.48;5.93;;;18.00;99.90;;;;;;5070134;28;20033;-47
2022/08/22 06:36:42;;;;;;;10.20;4.25;;;18.00;99.90;;;;;;5069704;28;20124;-47
2022/08/22 06:39:15;;;;;;;9.18;4.10;;;18.10;99.90;;;;;;5066489;28;20195;-47
2022/08/22 06:42:07;;;;;;;10.02;4.93;;;18.10;99.90;;;;;;5070507;28;20047;-48
2022/08/22 06:44:41;;;;;;;11.32;4.93;;;18.10;99.90;;;;;;5069134;28;20032;-48
2022/08/22 06:47:11;;;;;;;12.95;5.45;;;18.20;99.90;;;;;;5070037;28;20033;-50
2022/08/22 06:49:39;;;;;;;16.33;5.88;;;18.20;99.90;;;;;;5069510;28;20123;-51
2022/08/22 06:52:10;;;;;;;16.52;5.72;;;18.30;99.90;;;;;;5069764;28;20690;-46
2022/08/22 06:54:40;;;;;;;19.45;5.65;;;18.30;99.90;;;;;;5069402;28;20037;-49
2022/08/22 06:57:25;;;;;;;10.27;4.38;;;18.40;99.90;;;;;;5068962;28;20431;-46
2022/08/22 06:59:53;;;;;;;14.50;5.40;;;18.50;99.90;;;;;;5065675;28;20143;-47
2022/08/22 07:02:24;;;;;;;11.82;5.10;;;18.50;99.90;;;;;;5080134;28;20422;-47
2022/08/22 07:04:50;;;;;;;13.93;4.30;;;18.50;99.90;;;;;;5078954;28;20045;-48
2022/08/22 07:07:17;;;;;;;;;;;18.60;99.90;;;;;;5082103;28;20046;-49
2022/08/22 07:09:47;;;;;;;9.07;3.78;;;18.60;99.90;;;;;;5082939;28;19971;-46
2022/08/22 07:12:18;;;;;;;10.55;4.18;;;18.70;99.90;;;;;;5089357;28;20077;-47
2022/08/22 07:14:48;;;;;;;9.45;4.28;;;18.70;99.90;;;;;;5083141;28;20047;-47
2022/08/22 07:17:24;;;;;;;13.70;3.80;;;18.70;99.90;;;;;;5085119;28;20481;-46
2022/08/22 07:20:10;;;;;;;11.05;3.88;;;18.70;99.90;;;;;;5082376;28;20097;-48
2022/08/22 07:22:36;;;;;;;16.00;3.75;;;18.80;99.90;;;;;;5087488;28;20044;-47
2022/08/22 07:25:07;;;;;;;10.90;3.63;;;18.80;99.90;;;;;;5086920;28;20038;-47
2022/08/22 07:28:06;;;;;;;15.48;4.45;;;18.90;99.90;;;;;;5087320;28;20032;-46
2022/08/22 07:30:55;;;;;;;9.52;3.53;;;18.90;99.90;;;;;;5071608;28;20420;-47
2022/08/22 07:33:31;;;;;;;6.40;3.67;;;18.90;99.90;;;;;;5084744;28;20089;-46
2022/08/22 07:36:00;;;;;;;15.43;4.18;;;19.00;99.90;;;;;;5079542;28;20123;-47
2022/08/22 07:38:41;;;;;;;9.68;4.15;;;19.00;99.90;;;;;;5081514;28;20151;-46
2022/08/22 07:41:15;;;;;;;10.10;3.58;;;19.10;99.90;;;;;;5083370;28;20602;-47
2022/08/22 07:43:51;;;;;;;7.85;3.22;;;19.10;99.90;;;;;;5079349;28;20048;-47
2022/08/22 07:46:55;;;;;;;166.02;16.13;;;19.10;99.90;;;;;;5083550;28;20047;-47
2022/08/22 07:49:28;;;;;;;16.90;4.00;;;19.20;99.90;;;;;;5005962;28;20042;-47
2022/08/22 07:52:13;;;;;;;14.45;3.03;;;19.30;99.90;;;;;;4999402;28;20044;-46
2022/08/22 07:54:52;;;;;;;14.02;3.05;;;19.40;99.90;;;;;;5003197;28;20044;-51
2022/08/22 07:57:23;;;;;;;13.10;2.40;;;19.40;99.90;;;;;;5005376;28;20041;-52
2022/08/22 07:59:54;;;;;;;5.72;2.28;;;19.40;99.90;;;;;;5009365;28;20057;-51
2022/08/22 08:02:22;;;;;;;12.05;2.50;;;19.50;99.90;;;;;;5008016;28;20042;-50
2022/08/22 08:04:51;;;;;;;11.13;2.85;;;19.60;99.90;;;;;;5009700;28;20148;-52
2022/08/22 08:07:20;;;;;;;7.70;3.20;;;19.60;99.90;;;;;;5001371;28;20213;-50
2022/08/22 08:09:52;;;;;;;8.00;2.63;;;19.60;99.90;;;;;;4994872;28;20513;-51
2022/08/22 08:12:23;;;;;;;11.80;1.90;;;19.60;99.90;;;;;;5001221;28;20061;-51
2022/08/22 08:14:51;;;;;;;8.52;2.75;;;19.60;99.90;;;;;;4997788;28;20246;-51
2022/08/22 08:17:29;;;;;;;13.73;3.67;;;19.60;99.90;;;;;;4998190;28;20049;-51
2022/08/22 08:19:56;;;;;;;11.27;3.28;;;19.70;99.90;;;;;;4990687;28;20727;-52
2022/08/22 08:22:25;;;;;;;11.27;2.75;;;19.60;99.90;;;;;;4992470;28;20116;-52
2022/08/22 08:24:55;;;;;;;16.15;3.50;;;19.60;99.90;;;;;;5019901;28;20055;-51
2022/08/22 08:30:19;;;;;;;15.07;3.67;;;19.70;99.90;;;;;;5087183;28;20048;-52
2022/08/22 08:32:52;;;;;;;14.00;3.00;;;19.90;99.90;;;;;;5089676;28;20512;-52
2022/08/22 08:35:22;;;;;;;9.98;3.38;;;19.90;99.90;;;;;;5091182;28;20439;-52
2022/08/22 08:38:01;;;;;;;15.07;3.92;;;20.00;99.90;;;;;;5089130;28;20126;-52
2022/08/22 08:40:58;;;;;;;11.55;3.92;;;20.10;99.90;;;;;;5083413;28;20482;-51
2022/08/22 08:43:41;;;;;;;13.30;4.10;;;20.10;99.90;;;;;;5078159;28;20040;-52
2022/08/22 08:46:25;;;;;;;10.45;3.15;;;20.20;99.90;;;;;;5086174;28;20032;-49
2022/08/22 08:49:16;;;;;;;7.55;2.60;;;20.30;99.90;;;;;;5083146;28;20040;-52
2022/08/22 08:52:20;;;;;;;9.45;3.55;;;20.30;99.90;;;;;;5078735;28;20048;-51
2022/08/22 08:54:56;;;;;;;11.40;3.90;;;20.40;99.90;;;;;;5083057;28;20044;-50
2022/08/22 08:57:35;;;;;;;10.77;3.70;;;20.50;99.90;;;;;;5089155;28;20071;-48
2022/08/22 09:00:16;;;;;;;11.25;3.67;;;20.60;99.90;;;;;;5079783;28;20032;-51
2022/08/22 09:02:47;;;;;;;13.30;3.55;;;20.70;99.90;;;;;;5089293;28;20386;-52
2022/08/22 09:05:38;;;;;;;11.43;3.38;;;20.70;99.90;;;;;;5087687;28;20035;-52
2022/08/22 09:08:25;;;;;;;11.77;2.97;;;20.80;99.90;;;;;;5074644;28;20048;-48
2022/08/22 09:11:32;;;;;;;17.63;2.80;;;20.90;99.90;;;;;;5078234;28;20040;-47
2022/08/22 09:14:21;;;;;;;11.70;3.08;;;21.00;99.90;;;;;;5038274;28;20390;-52
2022/08/22 09:16:53;;;;;;;11.95;2.03;;;21.10;99.90;;;;;;5078210;28;20068;-51
2022/08/22 09:19:27;;;;;;;15.38;2.58;;;21.20;99.90;;;;;;5078144;28;20249;-50
2022/08/22 09:22:07;;;;;;;17.38;2.97;;;21.20;99.90;;;;;;5079487;28;20051;-50
2022/08/22 09:24:51;;;;;;;11.43;2.40;;;21.30;99.90;;;;;;5073019;28;20071;-51
2022/08/22 09:27:52;;;;;;;13.55;1.95;;;21.40;99.90;;;;;;5080583;28;20043;-52
2022/08/22 09:30:21;;;;;;;7.82;2.00;;;21.40;99.80;;;;;;5076255;28;20051;-50
2022/08/22 09:33:02;;;;;;;9.40;2.10;;;21.40;99.90;;;;;;5081004;28;21466;-52
2022/08/22 09:36:06;;;;;;;11.75;2.67;;;21.40;99.40;;;;;;5073179;28;20039;-53
2022/08/22 09:38:54;;;;;;;6.53;1.58;;;21.40;99.30;;;;;;5075710;28;20044;-52
2022/08/22 09:41:58;;;;;;;8.98;2.22;;;21.40;99.20;;;;;;5076418;28;20044;-52
2022/08/22 09:44:29;;;;;;;11.02;3.05;;;21.40;98.40;;;;;;5067989;28;20058;-49
2022/08/22 09:47:14;;;;;;;45.83;3.67;;;21.50;98.90;;;;;;5072079;28;20071;-48
2022/08/22 09:49:46;;;;;;;7.80;1.50;;;21.50;98.70;;;;;;5078124;28;20052;-52
2022/08/22 09:52:36;;;;;;;6.20;1.63;;;21.60;98.80;;;;;;5075635;28;20408;-49
2022/08/22 09:55:10;;;;;;;11.07;1.88;;;21.70;98.60;;;;;;5077268;28;20047;-52
2022/08/22 09:57:58;;;;;;;6.75;2.42;;;21.80;98.20;;;;;;5077500;28;20498;-50
2022/08/22 10:00:39;;;;;;;10.95;2.13;;;21.80;98.20;;;;;;5077155;28;20039;-51
2022/08/22 10:03:50;;;;;;;12.32;1.67;;;21.90;98.00;;;;;;5077551;28;20040;-47
2022/08/22 10:06:33;;;;;;;7.50;1.27;;;22.00;97.50;;;;;;5073429;28;20119;-51
2022/08/22 10:09:10;;;;;;;7.72;1.60;;;22.10;97.60;;;;;;5073656;28;20087;-52
2022/08/22 10:11:45;;;;;;;10.10;1.23;;;22.10;97.10;;;;;;5070905;28;20093;-47
2022/08/22 10:14:25;;;;;;;9.82;1.60;;;22.20;97.10;;;;;;5070824;28;20048;-52
2022/08/22 10:16:57;;;;;;;12.70;2.25;;;22.20;96.90;;;;;;5074803;28;20544;-50
2022/08/22 10:19:29;;;;;;;5.97;1.10;;;22.30;97.10;;;;;;5077606;28;20497;-47
2022/08/22 10:22:36;;;;;;;6.20;0.93;;;22.30;96.90;;;;;;5075233;28;20385;-51
2022/08/22 10:25:13;;;;;;;8.68;1.33;;;22.50;96.70;;;;;;5078138;28;20051;-47
2022/08/22 10:27:49;;;;;;;7.82;1.50;;;22.60;96.60;;;;;;5075513;28;20506;-47
2022/08/22 10:30:24;;;;;;;12.32;2.03;;;22.70;96.50;;;;;;5076731;28;20093;-49
2022/08/22 10:33:20;;;;;;;10.45;1.40;;;22.70;96.30;;;;;;5078683;28;20032;-47
2022/08/22 10:36:12;;;;;;;12.93;2.25;;;22.70;96.20;;;;;;5075199;28;20032;-48
2022/08/22 10:38:46;;;;;;;5.78;1.45;;;22.80;95.90;;;;;;5073534;28;20371;-49
2022/08/22 10:41:24;;;;;;;7.40;2.17;;;22.80;95.70;;;;;;5076258;28;20089;-47
2022/08/22 10:43:50;;;;;;;11.27;2.03;;;22.80;96.10;;;;;;5077249;28;20079;-47
2022/08/22 10:46:19;;;;;;;;;;;23.00;96.30;;;;;;5075425;28;20090;-46
2022/08/22 10:48:58;;;;;;;10.40;1.67;;;23.10;95.70;;;;;;5070412;28;20389;-47
2022/08/22 10:51:23;;;;;;;6.03;2.10;;;23.10;95.60;;;;;;5076210;28;20033;-48
2022/08/22 10:53:55;;;;;;;;;;;23.30;95.90;;;;;;5075391;28;20063;-50
2022/08/22 10:56:33;;;;;;;7.00;1.98;;;23.50;95.70;;;;;;5078775;28;20373;-47
2022/08/22 10:59:17;;;;;;;10.88;1.83;;;23.70;95.50;;;;;;5081014;28;20059;-46
2022/08/22 11:02:08;;;;;;;7.72;2.08;;;23.70;94.80;;;;;;5076399;28;20122;-51
2022/08/22 11:04:43;;;;;;;6.45;1.80;;;23.70;94.70;;;;;;5072611;28;20040;-49
2022/08/22 11:07:40;;;;;;;12.57;1.80;;;23.80;95.10;;;;;;5074289;28;20039;-47
2022/08/22 11:10:20;;;;;;;9.15;2.33;;;23.90;94.50;;;;;;5077107;28;20036;-46
2022/08/22 11:13:03;;;;;;;10.73;2.05;;;23.80;94.40;;;;;;5078477;28;20036;-47
2022/08/22 11:15:51;;;;;;;7.13;1.83;;;23.80;94.20;;;;;;5069253;28;20483;-48
2022/08/22 11:18:31;;;;;;;7.65;1.40;;;23.80;94.60;;;;;;5075652;28;20400;-48
2022/08/22 11:21:08;;;;;;;6.15;2.05;;;23.90;94.50;;;;;;5079453;28;20048;-50
2022/08/22 11:23:48;;;;;;;10.63;1.60;;;24.00;94.90;;;;;;5073676;28;20040;-47
2022/08/22 11:26:46;;;;;;;8.82;1.77;;;24.30;94.70;;;;;;5071077;28;20033;-47
2022/08/22 11:29:23;;;;;;;5.63;1.38;;;24.50;93.90;;;;;;5012947;28;20049;-49
2022/08/22 11:32:11;;;;;;;9.80;1.98;;;24.60;93.80;;;;;;5000177;28;20474;-46
2022/08/22 11:35:00;;;;;;;55.83;4.53;;;24.70;93.70;;;;;;5006315;28;20037;-48
2022/08/22 11:37:46;;;;;;;13.18;1.90;;;24.70;93.70;;;;;;5005875;28;20037;-46
2022/08/22 11:40:36;;;;;;;9.05;1.67;;;24.80;93.30;;;;;;5010572;28;20128;-48
2022/08/22 11:43:30;;;;;;;11.52;2.00;;;24.90;93.00;;;;;;5008534;28;20046;-48
2022/08/22 11:45:59;;;;;;;8.32;1.83;;;24.80;92.40;;;;;;4993366;28;20058;-47
2022/08/22 11:48:49;;;;;;;11.23;2.78;;;24.70;93.10;;;;;;5010025;28;20511;-48
2022/08/22 11:51:28;;;;;;;7.90;2.45;;;24.70;92.60;;;;;;5010494;28;20118;-49
2022/08/22 11:54:32;;;;;;;7.30;1.67;;;24.70;92.70;;;;;;5005566;28;20042;-48
2022/08/22 11:57:27;;;;;;;10.23;2.03;;;24.70;92.40;;;;;;5000721;28;20049;-50
2022/08/22 12:00:19;;;;;;;6.75;1.73;;;24.80;92.60;;;;;;5008531;28;20352;-47
2022/08/22 12:03:19;;;;;;;5.97;1.38;;;24.90;92.70;;;;;;5002551;28;20053;-48
2022/08/22 12:06:27;;;;;;;8.68;1.90;;;24.90;91.80;;;;;;5043424;28;20517;-48
2022/08/22 12:09:38;;;;;;;7.05;1.55;;;24.90;92.20;;;;;;5073031;28;20067;-46
2022/08/22 12:12:31;;;;;;;7.60;1.77;;;24.90;92.30;;;;;;5074641;28;20032;-47
2022/08/22 12:15:11;;;;;;;12.93;1.77;;;24.90;92.00;;;;;;5070993;28;20044;-47
2022/08/22 12:18:05;;;;;;;5.68;1.77;;;24.80;91.70;;;;;;5067124;28;20127;-47
2022/08/22 12:20:46;;;;;;;7.72;1.63;;;24.80;91.40;;;;;;5067436;28;20039;-48
2022/08/22 12:23:30;;;;;;;10.57;1.88;;;24.70;91.80;;;;;;5073996;28;20158;-46
2022/08/22 12:26:06;;;;;;;11.18;2.03;;;24.80;91.80;;;;;;5074653;28;20036;-48
2022/08/22 12:28:58;;;;;;;7.72;1.48;;;24.90;91.40;;;;;;5069947;28;20049;-47
2022/08/22 12:31:38;;;;;;;10.15;1.90;;;24.90;91.40;;;;;;5073142;28;20549;-47
2022/08/22 12:34:30;;;;;;;11.48;2.33;;;24.90;91.30;;;;;;5073006;28;20024;-46
2022/08/22 12:37:41;;;;;;;5.07;1.48;;;25.00;91.00;;;;;;5076123;28;20115;-48
2022/08/22 12:40:28;;;;;;;8.77;2.20;;;25.00;91.10;;;;;;5062931;28;20690;-46
2022/08/22 12:42:59;;;;;;;6.97;1.73;;;25.00;90.90;;;;;;5076261;28;20036;-48
2022/08/22 12:45:44;;;;;;;7.97;1.17;;;25.10;91.10;;;;;;5071374;28;20037;-50
2022/08/22 12:48:15;;;;;;;9.27;1.77;;;25.10;90.60;;;;;;5069533;28;20036;-48
2022/08/22 12:50:49;;;;;;;5.43;2.05;;;25.10;90.30;;;;;;5071278;28;20032;-49
2022/08/22 12:53:33;;;;;;;8.65;2.00;;;25.20;90.20;;;;;;5072693;28;20397;-47
2022/08/22 12:56:15;;;;;;;8.48;1.70;;;25.20;90.40;;;;;;5078751;28;20067;-48
2022/08/22 12:58:59;;;;;;;12.93;1.60;;;25.20;90.30;;;;;;5074365;28;20094;-48
2022/08/22 13:01:26;;;;;;;8.48;1.30;;;25.20;90.10;;;;;;5071866;28;20063;-47
2022/08/22 13:04:03;;;;;;;6.93;1.73;;;25.20;89.70;;;;;;5074685;28;20036;-46
2022/08/22 13:06:34;;;;;;;5.65;1.33;;;25.20;88.80;;;;;;5071409;28;20094;-47
2022/08/22 13:09:15;;;;;;;4.82;1.15;;;25.20;89.00;;;;;;5077539;28;20063;-47
2022/08/22 13:11:42;;;;;;;5.50;0.93;;;25.20;89.10;;;;;;5072778;28;20036;-48
2022/08/22 13:14:11;;;;;;;6.75;1.20;;;25.20;87.70;;;;;;5069807;28;20033;-47
2022/08/22 13:16:51;;;;;;;4.75;1.15;;;25.10;87.40;;;;;;5066315;28;20167;-48
2022/08/22 13:19:21;;;;;;;4.80;1.25;;;25.10;85.70;;;;;;5067588;28;20036;-48
2022/08/22 13:21:55;;;;;;;6.15;0.98;;;25.10;86.10;;;;;;5074390;28;20040;-48
2022/08/22 13:24:37;;;;;;;4.03;1.20;;;25.20;86.40;;;;;;5067122;28;20051;-48
2022/08/22 13:27:08;;;;;;;6.55;1.33;;;25.20;86.10;;;;;;5071140;28;20119;-46
2022/08/22 13:29:43;;;;;;;6.32;0.82;;;25.30;86.40;;;;;;5069863;28;20039;-47
2022/08/22 13:32:31;;;;;;;51.80;3.73;;;25.50;85.30;;;;;;5068383;28;20046;-48
2022/08/22 13:34:58;;;;;;;7.55;0.95;;;25.50;84.20;;;;;;5078005;28;20062;-48
2022/08/22 13:37:49;;;;;;;5.53;1.10;;;25.50;83.90;;;;;;5068971;28;20036;-49
2022/08/22 13:40:25;;;;;;;5.07;1.00;;;25.50;83.60;;;;;;5071709;28;20123;-48
2022/08/22 13:43:04;;;;;;;6.43;1.35;;;25.40;82.40;;;;;;5064581;28;20310;-46
2022/08/22 13:45:31;;;;;;;6.82;1.00;;;25.40;83.70;;;;;;5067184;28;20049;-49
2022/08/22 13:48:06;;;;;;;3.15;0.88;;;25.40;83.20;;;;;;5068968;28;20036;-47
2022/08/22 13:50:36;;;;;;;5.75;1.40;;;25.40;82.30;;;;;;5073525;28;20040;-47
2022/08/22 13:53:09;;;;;;;5.20;0.82;;;25.30;82.40;;;;;;5075963;28;20041;-48
2022/08/22 13:55:44;;;;;;;6.57;1.10;;;25.30;81.00;;;;;;5068927;28;20559;-48
2022/08/22 13:58:33;;;;;;;4.95;1.02;;;25.30;80.70;;;;;;5074280;28;20040;-48
2022/08/22 14:01:25;;;;;;;3.17;0.85;;;25.20;79.50;;;;;;5073430;28;20130;-48